createdAt,value
2019-05-03T00:02:29.323Z,31.35
2019-05-03T00:05:54.197Z,30.00
2019-05-03T00:08:58.725Z,34.23
2019-05-03T00:12:03.245Z,33.28
2019-05-03T00:15:24.081Z,28.90
2019-05-03T00:18:48.216Z,36.20
2019-05-03T00:21:52.757Z,37.83
2019-05-03T00:25:05.958Z,35.35
2019-05-03T00:28:04.201Z,34.67
2019-05-03T00:31:08.988Z,33.78
2019-05-03T00:34:17.033Z,30.50
2019-05-03T00:37:23.366Z,37.98
2019-05-03T00:40:32.426Z,31.00
2019-05-03T00:43:37.085Z,34.23
2019-05-03T00:46:42.164Z,30.40
2019-05-03T00:49:46.957Z,31.80
2019-05-03T00:52:57.245Z,30.17
2019-05-03T00:56:01.851Z,29.65
2019-05-03T00:59:07.267Z,35.43
2019-05-03T01:02:11.948Z,31.35
2019-05-03T01:05:16.684Z,28.90
2019-05-03T01:08:22.041Z,30.70
2019-05-03T01:11:27.251Z,34.43
2019-05-03T01:14:32.191Z,30.23
2019-05-03T01:17:36.862Z,28.35
2019-05-03T01:20:42.666Z,27.95
2019-05-03T01:23:47.403Z,28.47
2019-05-03T01:26:52.577Z,29.25
2019-05-03T01:29:57.888Z,29.87
2019-05-03T01:33:02.957Z,30.97
2019-05-03T01:36:07.683Z,25.92
2019-05-03T01:39:12.759Z,31.40
2019-05-03T01:42:18.152Z,30.23
2019-05-03T01:45:22.846Z,29.57
2019-05-03T01:48:52.432Z,28.85
2019-05-03T01:52:07.107Z,31.40
2019-05-03T01:55:15.734Z,29.00
2019-05-03T01:58:18.307Z,30.75
2019-05-03T02:01:42.816Z,33.45
2019-05-03T02:04:53.245Z,41.42
2019-05-03T02:07:59.082Z,30.68
2019-05-03T02:11:03.612Z,28.12
2019-05-03T02:14:09.072Z,24.35
2019-05-03T02:17:13.654Z,23.35
2019-05-03T02:20:18.347Z,27.90
2019-05-03T02:23:22.830Z,29.40
2019-05-03T02:26:27.442Z,30.35
2019-05-03T02:29:32.603Z,27.10
2019-05-03T02:32:37.498Z,25.88
2019-05-03T02:35:43.030Z,27.02
2019-05-03T02:38:48.899Z,26.65
2019-05-03T02:41:59.765Z,26.95
2019-05-03T02:45:00.093Z,29.40
2019-05-03T02:48:11.272Z,31.73
2019-05-03T02:51:15.921Z,24.40
2019-05-03T02:54:20.661Z,29.35
2019-05-03T02:57:25.831Z,31.55
2019-05-03T03:00:57.779Z,40.33
2019-05-03T03:04:05.129Z,35.38
2019-05-03T03:07:09.416Z,34.38
2019-05-03T03:10:16.152Z,35.70
2019-05-03T03:13:22.528Z,40.50
2019-05-03T03:16:28.674Z,31.25
2019-05-03T03:19:35.383Z,37.20
2019-05-03T03:22:45.604Z,40.67
2019-05-03T03:25:56.055Z,39.45
2019-05-03T03:29:06.321Z,38.73
2019-05-03T03:32:28.256Z,49.23
2019-05-03T03:35:37.626Z,42.38
2019-05-03T03:38:39.615Z,45.12
2019-05-03T03:41:45.875Z,42.13
2019-05-03T03:44:51.684Z,45.73
2019-05-03T03:47:57.403Z,43.95
2019-05-03T03:51:05.169Z,42.20
2019-05-03T03:54:15.467Z,47.38
2019-05-03T03:57:21.137Z,43.85
2019-05-03T04:00:26.025Z,37.55
2019-05-03T04:03:30.715Z,42.55
2019-05-03T04:06:41.530Z,41.95
2019-05-03T04:09:46.088Z,36.73
2019-05-03T04:12:50.771Z,39.35
2019-05-03T04:16:20.951Z,39.85
2019-05-03T04:19:28.009Z,38.73
2019-05-03T04:22:32.795Z,36.70
2019-05-03T04:25:38.606Z,38.75
2019-05-03T04:28:45.322Z,40.20
2019-05-03T04:31:50.270Z,38.53
2019-05-03T04:34:56.121Z,45.58
2019-05-03T04:38:05.875Z,46.92
2019-05-03T04:41:10.523Z,38.80
2019-05-03T04:44:15.658Z,50.17
2019-05-03T04:47:20.343Z,44.48
2019-05-03T04:50:25.641Z,44.95
2019-05-03T04:53:35.744Z,45.73
2019-05-03T04:57:06.933Z,53.52
2019-05-03T05:00:25.613Z,50.43
2019-05-03T05:03:26.612Z,52.03
2019-05-03T05:06:35.071Z,55.33
2019-05-03T05:09:56.559Z,49.60
2019-05-03T05:13:01.123Z,49.18
2019-05-03T05:16:06.026Z,48.90
2019-05-03T05:19:15.193Z,43.28
2019-05-03T05:22:24.584Z,51.45
2019-05-03T05:25:31.559Z,97.78
2019-05-03T05:28:44.605Z,60.10
2019-05-03T05:31:48.522Z,61.70
2019-05-03T05:34:54.842Z,51.53
2019-05-03T05:38:01.945Z,53.28
2019-05-03T05:41:06.431Z,69.27
2019-05-03T05:44:10.911Z,55.12
2019-05-03T05:47:49.496Z,46.92
2019-05-03T05:50:56.033Z,50.70
2019-05-03T05:54:00.539Z,45.98
2019-05-03T05:57:40.208Z,45.63
2019-05-03T06:00:55.176Z,43.55
2019-05-03T06:03:59.779Z,51.58
2019-05-03T06:07:15.875Z,139.97
2019-05-03T06:10:32.078Z,51.75
2019-05-03T06:13:40.738Z,45.48
2019-05-03T06:16:56.474Z,49.20
2019-05-03T06:20:20.917Z,40.20
2019-05-03T06:23:29.590Z,46.63
2019-05-03T06:26:56.566Z,56.28
2019-05-03T06:30:07.559Z,90.00
2019-05-03T06:33:14.293Z,212.32
2019-05-03T06:36:18.435Z,40.73
2019-05-03T06:39:24.953Z,40.05
2019-05-03T06:42:29.420Z,42.40
2019-05-03T06:45:35.326Z,45.33
2019-05-03T06:48:40.203Z,41.25
2019-05-03T06:51:49.506Z,37.53
2019-05-03T06:54:51.137Z,39.75
2019-05-03T06:57:55.763Z,42.88
2019-05-03T07:01:15.152Z,57.75
2019-05-03T07:04:24.622Z,38.48
2019-05-03T07:07:57.174Z,34.03
2019-05-03T07:11:02.332Z,45.45
2019-05-03T07:14:07.197Z,42.70
2019-05-03T07:17:12.011Z,37.67
2019-05-03T07:20:16.492Z,31.37
2019-05-03T07:23:21.514Z,46.05
2019-05-03T07:26:25.977Z,40.38
2019-05-03T07:29:30.554Z,37.45
2019-05-03T07:32:35.531Z,37.08
2019-05-03T07:35:41.518Z,36.35
2019-05-03T07:38:46.108Z,34.95
2019-05-03T07:41:51.143Z,35.08
2019-05-03T07:44:55.981Z,32.33
2019-05-03T07:48:02.273Z,34.45
2019-05-03T07:51:07.682Z,30.72
2019-05-03T07:54:12.242Z,39.33
2019-05-03T07:57:35.501Z,30.27
2019-05-03T08:03:45.095Z,26.77
2019-05-03T08:06:49.632Z,26.55
2019-05-03T08:09:55.576Z,32.50
2019-05-03T08:13:00.299Z,25.95
2019-05-03T08:16:05.941Z,30.90
2019-05-03T08:19:29.866Z,27.70
2019-05-03T08:22:34.566Z,25.32
2019-05-03T08:25:39.303Z,31.27
2019-05-03T08:28:44.442Z,34.23
2019-05-03T08:31:59.398Z,30.40
2019-05-03T08:35:20.174Z,28.95
2019-05-03T08:38:25.784Z,36.95
2019-05-03T08:41:32.254Z,27.58
2019-05-03T08:44:36.754Z,26.93
2019-05-03T08:47:41.198Z,32.40
2019-05-03T08:50:46.307Z,24.00
2019-05-03T08:53:51.185Z,30.77
2019-05-03T08:56:55.957Z,30.95
2019-05-03T09:00:00.439Z,25.77
2019-05-03T09:03:05.373Z,21.77
2019-05-03T09:06:10.156Z,28.52
2019-05-03T09:09:30.044Z,26.25
2019-05-03T09:12:52.148Z,28.20
2019-05-03T09:15:56.772Z,22.62
2019-05-03T09:19:01.606Z,23.85
2019-05-03T09:22:06.668Z,22.65
2019-05-03T09:25:11.155Z,24.85
2019-05-03T09:28:17.076Z,26.60
2019-05-03T09:31:21.602Z,25.30
2019-05-03T09:34:26.451Z,21.65
2019-05-03T09:37:30.913Z,21.23
2019-05-03T09:40:35.987Z,16.42
2019-05-03T09:43:40.515Z,15.13
2019-05-03T09:46:45.192Z,14.55
2019-05-03T09:49:49.682Z,18.45
2019-05-03T09:52:55.537Z,18.85
2019-05-03T09:56:04.913Z,17.20
2019-05-03T09:59:09.091Z,16.73
2019-05-03T10:02:15.150Z,15.65
2019-05-03T10:05:20.017Z,16.97
2019-05-03T10:08:25.469Z,14.68
2019-05-03T10:11:30.244Z,19.67
2019-05-03T10:14:34.845Z,12.43
2019-05-03T10:17:48.755Z,16.05
2019-05-03T10:20:56.219Z,15.53
2019-05-03T10:24:00.663Z,13.53
2019-05-03T10:27:05.698Z,14.30
2019-05-03T10:30:13.411Z,14.03
2019-05-03T10:33:22.734Z,18.32
2019-05-03T10:36:27.452Z,18.48
2019-05-03T10:40:15.812Z,16.87
2019-05-03T10:43:18.079Z,19.60
2019-05-03T10:46:22.664Z,14.63
2019-05-03T10:49:47.117Z,15.05
2019-05-03T10:53:18.657Z,15.72
2019-05-03T10:56:42.116Z,22.37
2019-05-03T10:59:49.738Z,21.17
2019-05-03T11:02:59.643Z,17.05
2019-05-03T11:06:25.899Z,16.05
2019-05-03T11:10:02.863Z,15.98
2019-05-03T11:13:51.085Z,20.00
2019-05-03T11:16:56.601Z,16.60
2019-05-03T11:20:01.123Z,20.65
2019-05-03T11:23:07.296Z,22.35
2019-05-03T11:26:13.827Z,24.43
2019-05-03T11:29:18.033Z,24.57
2019-05-03T11:32:55.605Z,25.35
2019-05-03T11:36:31.823Z,24.72
2019-05-03T11:39:37.311Z,20.43
2019-05-03T11:42:41.835Z,22.02
2019-05-03T11:45:46.403Z,21.68
2019-05-03T11:48:51.540Z,22.15
2019-05-03T11:51:57.130Z,18.62
2019-05-03T11:55:01.711Z,44.27
2019-05-03T11:58:18.795Z,21.50
2019-05-03T12:01:30.528Z,20.77
2019-05-03T12:04:35.456Z,23.87
2019-05-03T12:07:40.888Z,24.18
2019-05-03T12:10:55.360Z,21.80
2019-05-03T12:14:10.603Z,25.77
2019-05-03T12:17:23.896Z,24.98
2019-05-03T12:20:23.941Z,27.98
2019-05-03T12:23:31.617Z,30.50
2019-05-03T12:26:43.978Z,24.57
2019-05-03T12:29:44.585Z,31.37
2019-05-03T12:32:50.163Z,20.02
2019-05-03T12:35:55.578Z,25.23
2019-05-03T12:39:00.187Z,24.63
2019-05-03T12:42:05.933Z,21.97
2019-05-03T12:45:11.932Z,17.67
2019-05-03T12:48:16.529Z,19.35
2019-05-03T12:51:21.162Z,24.67
2019-05-03T12:54:26.157Z,17.67
2019-05-03T12:57:32.022Z,17.45
2019-05-03T13:00:48.670Z,14.33
2019-05-03T13:04:01.778Z,11.45
2019-05-03T13:07:19.303Z,14.83
2019-05-03T13:10:26.481Z,11.60
2019-05-03T13:13:35.540Z,11.12
2019-05-03T13:16:44.489Z,14.03
2019-05-03T13:19:48.835Z,9.95
2019-05-03T13:22:55.811Z,10.13
2019-05-03T13:26:00.153Z,17.02
2019-05-03T13:29:05.857Z,10.75
2019-05-03T13:32:10.545Z,16.12
2019-05-03T13:35:15.488Z,11.08
2019-05-03T13:38:20.393Z,18.07
2019-05-03T13:41:26.019Z,13.62
2019-05-03T13:44:30.619Z,17.55
2019-05-03T13:47:36.515Z,15.03
2019-05-03T13:50:41.945Z,14.38
2019-05-03T13:53:46.620Z,16.40
2019-05-03T13:56:55.250Z,14.20
2019-05-03T13:59:59.964Z,19.00
2019-05-03T14:03:04.700Z,18.65
2019-05-03T14:06:09.649Z,11.33
2019-05-03T14:09:14.299Z,14.15
2019-05-03T14:12:18.839Z,17.95
2019-05-03T14:15:25.548Z,16.62
2019-05-03T14:18:30.451Z,17.00
2019-05-03T14:21:43.815Z,14.70
2019-05-03T14:24:48.435Z,14.45
2019-05-03T14:27:54.822Z,12.55
2019-05-03T14:30:59.167Z,15.25
2019-05-03T14:34:05.798Z,17.52
2019-05-03T14:37:10.297Z,16.25
2019-05-03T14:40:17.947Z,17.60
2019-05-03T14:43:24.703Z,14.20
2019-05-03T14:46:33.080Z,15.90
2019-05-03T14:49:35.976Z,16.55
2019-05-03T14:52:40.528Z,13.18
2019-05-03T14:55:58.920Z,15.65
2019-05-03T14:59:37.422Z,27.82
2019-05-03T15:02:52.392Z,20.88
2019-05-03T15:05:58.446Z,22.42
2019-05-03T15:09:05.326Z,14.53
2019-05-03T15:12:09.457Z,17.70
2019-05-03T15:15:14.761Z,15.63
2019-05-03T15:18:19.962Z,15.58
2019-05-03T15:24:34.666Z,16.52
2019-05-03T15:27:39.738Z,15.60
2019-05-03T15:30:46.569Z,17.02
2019-05-03T15:33:51.109Z,12.15
2019-05-03T15:36:57.368Z,11.63
2019-05-03T15:40:06.066Z,15.83
2019-05-03T15:43:28.893Z,16.73
2019-05-03T15:46:48.896Z,11.65
2019-05-03T15:49:55.423Z,16.07
2019-05-03T15:53:04.398Z,14.07
2019-05-03T15:56:11.860Z,16.17
2019-05-03T15:59:17.104Z,15.78
2019-05-03T16:02:22.332Z,19.70
2019-05-03T16:05:26.742Z,14.93
2019-05-03T16:08:33.078Z,15.88
2019-05-03T16:11:37.605Z,11.30
2019-05-03T16:14:42.135Z,17.55
2019-05-03T16:17:46.692Z,14.18
2019-05-03T16:20:51.415Z,12.55
2019-05-03T16:23:55.891Z,19.67
2019-05-03T16:27:34.502Z,19.32
2019-05-03T16:30:48.052Z,14.98
2019-05-03T16:33:52.539Z,16.05
2019-05-03T16:36:57.003Z,15.60
2019-05-03T16:40:02.056Z,14.65
2019-05-03T16:43:06.547Z,15.25
2019-05-03T16:46:11.482Z,13.40
2019-05-03T16:49:16.475Z,14.63
2019-05-03T16:52:40.682Z,13.78
2019-05-03T16:55:45.899Z,20.62
2019-05-03T16:58:50.422Z,18.62
2019-05-03T17:01:55.228Z,23.25
2019-05-03T17:05:10.265Z,18.95
2019-05-03T17:08:30.668Z,15.68
2019-05-03T17:11:35.934Z,16.90
2019-05-03T17:14:40.904Z,20.05
2019-05-03T17:17:45.659Z,20.57
2019-05-03T17:20:51.598Z,19.48
2019-05-03T17:23:56.367Z,18.07
2019-05-03T17:27:00.843Z,17.27
2019-05-03T17:30:08.605Z,24.10
2019-05-03T17:33:16.156Z,21.33
2019-05-03T17:36:25.044Z,20.80
2019-05-03T17:39:54.715Z,17.87
2019-05-03T17:43:11.917Z,16.23
2019-05-03T17:46:16.940Z,19.52
2019-05-03T17:49:23.140Z,18.75
2019-05-03T17:52:46.751Z,16.25
2019-05-03T17:56:10.214Z,19.23
2019-05-03T17:59:28.876Z,20.40
2019-05-03T18:02:46.120Z,20.12
2019-05-03T18:06:00.081Z,22.10
2019-05-03T18:09:23.530Z,18.25
2019-05-03T18:12:27.992Z,15.58
2019-05-03T18:15:34.603Z,21.00
2019-05-03T18:18:40.595Z,21.70
2019-05-03T18:21:45.106Z,21.93
2019-05-03T18:24:49.680Z,22.82
2019-05-03T18:27:55.200Z,17.82
2019-05-03T18:31:00.034Z,22.67
2019-05-03T18:34:05.169Z,20.48
2019-05-03T18:37:11.282Z,25.52
2019-05-03T18:40:15.999Z,27.17
2019-05-03T18:43:39.081Z,24.35
2019-05-03T18:46:55.902Z,19.62
2019-05-03T18:50:01.357Z,21.12
2019-05-03T18:53:05.837Z,25.55
2019-05-03T18:56:10.826Z,20.92
2019-05-03T18:59:18.391Z,17.32
2019-05-03T19:02:24.253Z,20.45
2019-05-03T19:05:30.307Z,21.20
2019-05-03T19:08:54.318Z,25.50
2019-05-03T19:12:20.927Z,27.60
2019-05-03T19:15:27.055Z,18.87
2019-05-03T19:18:38.974Z,24.15
2019-05-03T19:21:44.464Z,18.47
2019-05-03T19:24:49.161Z,19.65
2019-05-03T19:27:54.615Z,23.80
2019-05-03T19:31:05.365Z,19.48
2019-05-03T19:34:11.581Z,21.68
2019-05-03T19:37:16.134Z,21.42
2019-05-03T19:40:22.062Z,27.65
2019-05-03T19:43:35.533Z,17.87
2019-05-03T19:46:49.223Z,19.90
2019-05-03T19:53:21.149Z,22.10
2019-05-03T19:56:29.078Z,21.85
2019-05-03T19:59:51.753Z,26.00
2019-05-03T20:03:00.415Z,29.27
2019-05-03T20:06:30.265Z,19.98
2019-05-03T20:09:49.349Z,24.77
2019-05-03T20:12:55.152Z,21.17
2019-05-03T20:16:01.162Z,21.65
2019-05-03T20:19:17.899Z,22.07
2019-05-03T20:22:15.027Z,22.17
2019-05-03T20:25:19.089Z,25.05
2019-05-03T20:28:44.925Z,26.55
2019-05-03T20:31:49.648Z,22.00
2019-05-03T20:34:55.127Z,21.73
2019-05-03T20:37:59.890Z,20.15
2019-05-03T20:41:05.225Z,29.27
2019-05-03T20:44:25.911Z,29.82
2019-05-03T20:47:38.190Z,37.85
2019-05-03T20:50:44.597Z,29.90
2019-05-03T20:53:49.017Z,23.83
2019-05-03T20:56:54.668Z,24.47
2019-05-03T20:59:59.246Z,25.25
2019-05-03T21:03:04.923Z,30.37
2019-05-03T21:06:09.558Z,28.35
2019-05-03T21:09:15.030Z,25.00
2019-05-03T21:12:19.687Z,27.30
2019-05-03T21:15:39.852Z,27.62
2019-05-03T21:18:50.355Z,27.62
2019-05-03T21:22:02.300Z,27.80
2019-05-03T21:25:15.698Z,26.75
2019-05-03T21:28:20.366Z,24.12
2019-05-03T21:31:24.891Z,25.45
2019-05-03T21:34:29.418Z,24.95
2019-05-03T21:37:34.885Z,28.25
2019-05-03T21:40:58.565Z,26.85
2019-05-03T21:44:04.839Z,25.02
2019-05-03T21:47:35.109Z,30.48
2019-05-03T21:50:39.802Z,26.20
2019-05-03T21:53:45.045Z,24.65
2019-05-03T21:56:49.805Z,22.87
2019-05-03T21:59:55.021Z,28.35
2019-05-03T22:02:59.675Z,33.53
2019-05-03T22:06:04.398Z,26.12
2019-05-03T22:09:10.123Z,31.60
2019-05-03T22:12:15.437Z,26.25
2019-05-03T22:15:31.121Z,30.25
2019-05-03T22:18:36.025Z,34.63
2019-05-03T22:21:55.157Z,30.32
2019-05-03T22:25:00.151Z,28.20
2019-05-03T22:28:07.178Z,31.85
2019-05-03T22:31:11.900Z,32.53
2019-05-03T22:34:16.567Z,31.50
2019-05-03T22:37:21.053Z,35.63
2019-05-03T22:40:46.760Z,36.25
2019-05-03T22:43:50.992Z,26.33
2019-05-03T22:46:55.999Z,24.82
2019-05-03T22:50:00.530Z,27.62
2019-05-03T22:53:05.958Z,21.50
2019-05-03T22:56:10.789Z,33.53
2019-05-03T22:59:16.151Z,35.92
2019-05-03T23:02:20.694Z,27.02
2019-05-03T23:05:25.749Z,27.50
2019-05-03T23:08:30.332Z,32.75
2019-05-03T23:11:35.834Z,31.27
2019-05-03T23:14:40.439Z,32.33
2019-05-03T23:17:45.249Z,32.55
2019-05-03T23:20:57.228Z,37.50
2019-05-03T23:24:01.811Z,30.92
2019-05-03T23:27:06.438Z,23.87
2019-05-03T23:30:11.134Z,34.85
2019-05-03T23:33:15.737Z,20.52
2019-05-03T23:36:32.524Z,29.00
2019-05-03T23:39:26.657Z,27.75
2019-05-03T23:42:31.631Z,29.77
2019-05-03T23:45:36.102Z,25.27
2019-05-03T23:48:40.697Z,32.98
2019-05-03T23:51:50.271Z,27.75
2019-05-03T23:54:55.394Z,31.17
2019-05-03T23:57:59.899Z,18.48
